Fort Worth Nas Jrb/Carswell field
KNFW : now visible

Airfield :











YOU CAN JOIN US ON...

 
LOGIN :

Register | Disclaimer

   EN    FR    IT 

 









Legend :    VFR   Marginal VFR   IFR   Intensive IFR   Very Intensive IFR
Visi :
Ceiling :
>= 8 km
>= 3000ft
5 to 8 km
1000 to 3000 ft
1500m to 5 km
500 to 1000 ft
800 to 1500m
200 to 500 ft
< 800m
< 200 ft
Symbols :   Thunderstorms  Fog  Heavy snow  Heavy precipitations  Wind > 20 kt






- Airport Elevation : 650 ft


KNFW - Fort Worth Nas Jrb/Carswell field

CURRENT METAR :
  • 250152Z 16008KT 10SM FEW100 33/21 A2986 RMK AO2 SLP095 T03280206 $

EXPIRED METARs :
  • 250052Z 17010KT 10SM FEW070 34/19 A2986 RMK AO2 SLP096 T03390189 $
  • 242352Z 19012KT 10SM FEW070 36/19 A2986 RMK AO2 SLP097 T03560189 10372 20333 56015 $
  • 242252Z 15009KT 10SM FEW065 36/19 A2987 RMK AO2 SLP100 T03610189 $
  • 242152Z 18011KT 10SM BKN065 36/19 A2989 RMK AO2 SLP106 T03610189 $

TAF TAF KNFW
Valid from the 24 at 23:00 until the 25 at 23:00 UTC


2423/2523 17010G15KT 9999 SCT065 QNH2983INS
BECMG 2505/2506 18010G20KT FEW018 BKN065 QNH2986INS
BECMG 2511/2512 19012G22KT FEW010 BKN018 QNH2989INS
BECMG 2517/2518 19010G18KT FEW018 SCT040 QNH2984INS AUTOMATED SENSOR METWATCH 2504 TIL 2511 TX38/2522Z TN26/2512Z FN20092
KZFW FIR / North America



MET'MAP, your aeronautical weather chart ! - Copyright ORBIFLY December 2007 - Disclaimer

ORBIFLY MET'MAP TEAM :

Programming & Development : Alexandra Zaïnal
Original concept : Baudouin d'Aumeries
Technical & hardware support : Manuel Goepfert
Assistance : Marc-Olivier Méhu




SOURCES & CREDITS :

   NOAA       Earth
Advisory